createdAt,value
2022-10-01T00:01:41.671Z,99995.00
2022-10-01T00:04:08.421Z,99987.19
2022-10-01T00:06:35.226Z,99985.41
2022-10-01T00:09:01.911Z,99974.16
2022-10-01T00:11:28.642Z,99969.75
2022-10-01T00:13:55.510Z,99963.63
2022-10-01T00:16:25.121Z,99964.56
2022-10-01T00:18:53.578Z,99957.63
2022-10-01T00:21:23.541Z,99955.88
2022-10-01T00:23:58.562Z,99954.19
2022-10-01T00:26:28.315Z,99942.03
2022-10-01T00:28:57.702Z,99942.03
2022-10-01T00:31:25.211Z,99941.16
2022-10-01T00:33:53.985Z,99936.81
2022-10-01T00:36:21.429Z,99933.28
2022-10-01T00:38:48.239Z,99937.59
2022-10-01T00:41:17.287Z,99929.72
2022-10-01T00:43:48.051Z,99928.06
2022-10-01T00:46:23.727Z,99916.72
2022-10-01T00:49:01.059Z,99907.94
2022-10-01T00:51:33.028Z,99914.09
2022-10-01T00:54:10.346Z,99897.56
2022-10-01T00:56:38.199Z,99901.88
2022-10-01T00:59:06.015Z,99888.00
2022-10-01T01:01:37.592Z,99891.41
2022-10-01T01:04:16.169Z,99889.75
2022-10-01T01:06:55.824Z,99881.88
2022-10-01T01:09:25.089Z,99885.38
2022-10-01T01:11:57.970Z,99885.41
2022-10-01T01:14:57.901Z,99881.91
2022-10-01T01:17:34.953Z,99882.81
2022-10-01T01:20:29.427Z,99884.53
2022-10-01T01:23:14.768Z,99877.50
2022-10-01T01:25:54.674Z,99873.09
2022-10-01T01:28:31.718Z,99870.56
2022-10-01T01:31:03.673Z,99868.03
2022-10-01T01:33:34.319Z,99861.88
2022-10-01T01:36:08.645Z,99857.44
2022-10-01T01:38:42.724Z,99849.63
2022-10-01T01:41:11.634Z,99853.06
2022-10-01T01:43:44.020Z,99846.03
2022-10-01T01:46:13.253Z,99840.81
2022-10-01T01:48:41.826Z,99847.03
2022-10-01T01:51:14.609Z,99846.97
2022-10-01T01:53:41.553Z,99835.59
2022-10-01T01:56:08.677Z,99833.88
2022-10-01T01:58:35.971Z,99833.78
2022-10-01T02:01:03.244Z,99830.41
2022-10-01T02:03:31.260Z,99828.59
2022-10-01T02:06:41.046Z,99813.13
2022-10-01T02:09:21.910Z,99802.75
2022-10-01T02:12:19.182Z,99798.59
2022-10-01T02:15:02.267Z,99794.19
2022-10-01T02:17:36.576Z,99770.81
2022-10-01T02:20:15.501Z,99768.28
2022-10-01T02:22:50.814Z,99774.34
2022-10-01T02:25:22.247Z,99775.22
2022-10-01T02:27:59.027Z,99770.00
2022-10-01T02:30:27.689Z,99770.09
2022-10-01T02:32:59.248Z,99774.44
2022-10-01T02:35:27.906Z,99757.06
2022-10-01T02:37:57.348Z,99771.84
2022-10-01T02:40:27.024Z,99765.69
2022-10-01T02:42:56.750Z,99769.25
2022-10-01T02:45:26.037Z,99772.72
2022-10-01T02:48:04.645Z,99771.09
2022-10-01T02:50:37.097Z,99777.19
2022-10-01T02:53:07.315Z,99770.25
2022-10-01T02:55:38.285Z,99761.56
2022-10-01T02:58:05.959Z,99747.66
2022-10-01T03:00:32.500Z,99740.72
2022-10-01T03:02:59.594Z,99731.22
2022-10-01T03:05:26.721Z,99727.81
2022-10-01T03:07:53.457Z,99713.00
2022-10-01T03:10:20.246Z,99707.91
2022-10-01T03:12:46.929Z,99700.00
2022-10-01T03:15:16.226Z,99690.53
2022-10-01T03:17:42.951Z,99677.50
2022-10-01T03:20:10.678Z,99659.34
2022-10-01T03:22:37.275Z,99654.13
2022-10-01T03:25:04.981Z,99655.88
2022-10-01T03:27:32.868Z,99653.22
2022-10-01T03:29:59.515Z,99648.06
2022-10-01T03:32:26.217Z,99643.66
2022-10-01T03:34:52.781Z,99626.38
2022-10-01T03:37:20.405Z,99617.75
2022-10-01T03:39:47.093Z,99615.09
2022-10-01T03:42:13.585Z,99602.09
2022-10-01T03:44:40.136Z,99598.72
2022-10-01T03:47:06.686Z,99603.88
2022-10-01T03:49:34.589Z,99592.72
2022-10-01T03:52:02.366Z,99591.84
2022-10-01T03:54:31.315Z,99599.56
2022-10-01T03:56:58.517Z,99599.63
2022-10-01T03:59:27.097Z,99601.34
2022-10-01T04:01:54.356Z,99603.09
2022-10-01T04:04:20.997Z,99605.66
2022-10-01T04:06:47.571Z,99597.88
2022-10-01T04:09:16.724Z,99604.81
2022-10-01T04:11:47.299Z,99602.16
2022-10-01T04:14:14.153Z,99584.94
2022-10-01T04:16:40.993Z,99581.31
2022-10-01T04:19:07.568Z,99577.88
2022-10-01T04:21:34.271Z,99569.22
2022-10-01T04:24:03.100Z,99563.13
2022-10-01T04:26:29.630Z,99564.06
2022-10-01T04:28:56.269Z,99564.97
2022-10-01T04:31:25.985Z,99559.66
2022-10-01T04:33:54.874Z,99541.56
2022-10-01T04:36:22.576Z,99548.34
2022-10-01T04:39:01.812Z,99555.25
2022-10-01T04:41:30.779Z,99551.91
2022-10-01T04:43:59.907Z,99561.47
2022-10-01T04:46:28.062Z,99555.31
2022-10-01T04:48:54.707Z,99553.63
2022-10-01T04:51:21.374Z,99540.63
2022-10-01T04:53:47.902Z,99546.69
2022-10-01T04:56:14.507Z,99551.97
2022-10-01T04:58:41.327Z,99555.38
2022-10-01T05:01:08.017Z,99543.31
2022-10-01T05:03:34.677Z,99531.16
2022-10-01T05:06:01.408Z,99528.41
2022-10-01T05:08:27.971Z,99524.84
2022-10-01T05:10:54.515Z,99529.22
2022-10-01T05:13:21.151Z,99535.34
2022-10-01T05:15:52.180Z,99540.53
2022-10-01T05:18:19.112Z,99525.72
2022-10-01T05:20:46.090Z,99522.25
2022-10-01T05:23:12.661Z,99512.78
2022-10-01T05:25:39.544Z,99503.16
2022-10-01T05:28:06.252Z,99501.44
2022-10-01T05:30:34.298Z,99501.50
2022-10-01T05:33:03.730Z,99505.78
2022-10-01T05:35:30.698Z,99504.03
2022-10-01T05:37:58.937Z,99503.16
2022-10-01T05:40:28.442Z,99502.31
2022-10-01T05:43:00.099Z,99502.41
2022-10-01T05:45:28.096Z,99510.97
2022-10-01T05:48:03.266Z,99513.47
2022-10-01T05:50:31.770Z,99516.09
2022-10-01T05:52:59.329Z,99507.41
2022-10-01T05:55:26.735Z,99492.59
2022-10-01T05:57:58.538Z,99521.22
2022-10-01T06:00:29.134Z,99533.34
2022-10-01T06:03:00.539Z,99522.06
2022-10-01T06:05:28.939Z,99514.34
2022-10-01T06:07:55.663Z,99503.16
2022-10-01T06:10:22.904Z,99527.38
2022-10-01T06:12:49.679Z,99511.75
2022-10-01T06:15:17.591Z,99516.91
2022-10-01T06:17:47.533Z,99510.97
2022-10-01T06:20:17.189Z,99523.06
2022-10-01T06:22:43.845Z,99511.84
2022-10-01T06:25:12.642Z,99523.06
2022-10-01T06:27:39.325Z,99522.16
2022-10-01T06:30:06.849Z,99522.16
2022-10-01T06:32:35.045Z,99513.50
2022-10-01T06:35:02.899Z,99516.09
2022-10-01T06:37:29.767Z,99520.31
2022-10-01T06:39:56.454Z,99522.84
2022-10-01T06:42:23.230Z,99525.53
2022-10-01T06:44:49.773Z,99523.72
2022-10-01T06:47:16.285Z,99515.00
2022-10-01T06:49:46.775Z,99532.28
2022-10-01T06:52:32.835Z,99528.00
2022-10-01T06:55:01.247Z,99515.03
2022-10-01T06:57:28.863Z,99521.13
2022-10-01T06:59:55.760Z,99523.69
2022-10-01T07:02:28.846Z,99522.81
2022-10-01T07:04:59.380Z,99523.56
2022-10-01T07:07:35.249Z,99531.41
2022-10-01T07:10:03.361Z,99519.38
2022-10-01T07:12:29.917Z,99521.06
2022-10-01T07:14:56.550Z,99511.41
2022-10-01T07:17:23.161Z,99505.44
2022-10-01T07:19:49.811Z,99507.00
2022-10-01T07:22:18.040Z,99507.91
2022-10-01T07:24:44.769Z,99519.94
2022-10-01T07:27:11.367Z,99522.56
2022-10-01T07:29:38.248Z,99519.28
2022-10-01T07:32:08.751Z,99523.59
2022-10-01T07:34:37.348Z,99523.28
2022-10-01T07:37:04.559Z,99523.44
2022-10-01T07:39:31.141Z,99529.50
2022-10-01T07:41:58.909Z,99534.66
2022-10-01T07:44:29.325Z,99545.91
2022-10-01T07:46:56.874Z,99533.84
2022-10-01T07:49:25.202Z,99536.31
2022-10-01T07:51:54.386Z,99550.38
2022-10-01T07:54:22.025Z,99538.09
2022-10-01T07:56:51.914Z,99547.72
2022-10-01T07:59:18.919Z,99556.38
2022-10-01T08:01:49.767Z,99545.78
2022-10-01T08:04:35.024Z,99553.72
2022-10-01T08:07:01.677Z,99550.97
2022-10-01T08:09:28.411Z,99555.31
2022-10-01T08:11:54.951Z,99551.69
2022-10-01T08:14:21.685Z,99560.38
2022-10-01T08:16:48.557Z,99551.69
2022-10-01T08:19:15.807Z,99555.22
2022-10-01T08:21:42.957Z,99562.16
2022-10-01T08:24:10.008Z,99558.69
2022-10-01T08:26:36.785Z,99559.50
2022-10-01T08:29:03.451Z,99558.63
2022-10-01T08:31:30.169Z,99559.41
2022-10-01T08:33:57.454Z,99555.09
2022-10-01T08:36:24.377Z,99564.56
2022-10-01T08:38:50.962Z,99562.03
2022-10-01T08:41:30.681Z,99569.69
2022-10-01T08:43:58.911Z,99558.19
2022-10-01T08:46:30.501Z,99562.56
2022-10-01T08:49:16.007Z,99581.59
2022-10-01T08:52:03.635Z,99578.06
2022-10-01T08:54:42.928Z,99582.91
2022-10-01T08:57:20.843Z,99579.38
2022-10-01T09:00:00.917Z,99594.13
2022-10-01T09:02:38.266Z,99589.63
2022-10-01T09:05:13.529Z,99605.34
2022-10-01T09:07:49.181Z,99603.38
2022-10-01T09:10:42.119Z,99609.53
2022-10-01T09:13:36.057Z,99604.38
2022-10-01T09:16:02.573Z,99611.25
2022-10-01T09:18:31.966Z,99614.63
2022-10-01T09:20:59.519Z,99613.69
2022-10-01T09:23:34.190Z,99623.94
2022-10-01T09:26:01.632Z,99628.34
2022-10-01T09:28:35.058Z,99629.25
2022-10-01T09:31:14.481Z,99642.94
2022-10-01T09:33:42.325Z,99640.09
2022-10-01T09:36:52.834Z,99640.00
2022-10-01T09:39:31.709Z,99650.41
2022-10-01T09:41:59.693Z,99645.22
2022-10-01T09:44:29.240Z,99656.19
2022-10-01T09:46:55.941Z,99658.31
2022-10-01T09:49:31.605Z,99659.13
2022-10-01T09:52:02.753Z,99648.66
2022-10-01T09:54:32.343Z,99655.44
2022-10-01T09:57:05.202Z,99651.78
2022-10-01T09:59:40.340Z,99647.56
2022-10-01T10:02:17.710Z,99654.66
2022-10-01T10:04:44.386Z,99654.53
2022-10-01T10:07:18.808Z,99658.03
2022-10-01T10:09:45.493Z,99655.88
2022-10-01T10:12:31.926Z,99659.28
2022-10-01T10:15:08.335Z,99652.91
2022-10-01T10:17:38.050Z,99657.13
2022-10-01T10:20:17.537Z,99667.41
2022-10-01T10:22:43.969Z,99662.44
2022-10-01T10:25:19.622Z,99654.53
2022-10-01T10:27:55.786Z,99664.25
2022-10-01T10:30:26.386Z,99649.88
2022-10-01T10:33:01.894Z,99666.97
2022-10-01T10:35:28.909Z,99665.19
2022-10-01T10:37:57.320Z,99663.31
2022-10-01T10:40:32.869Z,99661.38
2022-10-01T10:43:00.229Z,99666.66
2022-10-01T10:45:38.650Z,99661.00
2022-10-01T10:48:08.034Z,99669.25
2022-10-01T10:50:39.329Z,99671.06
2022-10-01T10:53:22.290Z,99676.59
2022-10-01T10:56:01.112Z,99673.09
2022-10-01T10:58:30.723Z,99687.69
2022-10-01T11:01:00.204Z,99687.88
2022-10-01T11:03:30.233Z,99684.31
2022-10-01T11:06:08.786Z,99682.16
2022-10-01T11:08:35.900Z,99684.03
2022-10-01T11:11:27.695Z,99690.22
2022-10-01T11:14:21.456Z,99683.75
2022-10-01T11:17:04.019Z,99686.97
2022-10-01T11:20:01.726Z,99683.88
2022-10-01T11:22:39.376Z,99692.09
2022-10-01T11:25:05.901Z,99683.00
2022-10-01T11:27:58.726Z,99692.16
2022-10-01T11:30:45.831Z,99696.88
2022-10-01T11:33:15.390Z,99702.59
2022-10-01T11:35:47.113Z,99702.28
2022-10-01T11:38:24.727Z,99709.16
2022-10-01T11:40:58.168Z,99691.72
2022-10-01T11:43:32.630Z,99701.56
2022-10-01T11:46:10.480Z,99701.09
2022-10-01T11:49:10.146Z,99708.94
2022-10-01T11:51:46.471Z,99712.38
2022-10-01T11:54:16.658Z,99713.03
2022-10-01T11:57:08.029Z,99715.31
2022-10-01T11:59:55.326Z,99712.69
2022-10-01T12:02:31.719Z,99712.78
2022-10-01T12:05:10.243Z,99710.91
2022-10-01T12:07:46.482Z,99727.50
2022-10-01T12:10:42.130Z,99724.16
2022-10-01T12:13:15.886Z,99727.16
2022-10-01T12:16:20.951Z,99727.00
2022-10-01T12:18:57.227Z,99721.13
2022-10-01T12:21:29.112Z,99730.75
2022-10-01T12:24:12.987Z,99705.34
2022-10-01T12:26:54.895Z,99706.31
2022-10-01T12:30:06.352Z,99741.47
2022-10-01T12:32:51.871Z,99716.19
2022-10-01T12:35:39.611Z,99721.28
2022-10-01T12:38:36.833Z,99736.28
2022-10-01T12:41:32.180Z,99744.63
2022-10-01T12:44:22.191Z,99743.88
2022-10-01T12:47:11.374Z,99744.34
2022-10-01T12:50:04.725Z,99756.56
2022-10-01T12:53:09.579Z,99754.72
2022-10-01T12:55:54.960Z,99753.94
2022-10-01T12:58:40.432Z,99762.44
2022-10-01T13:01:31.897Z,99765.97
2022-10-01T13:04:23.386Z,99768.81
2022-10-01T13:07:05.149Z,99754.00
2022-10-01T13:10:07.244Z,99770.91
2022-10-01T13:12:56.503Z,99756.69
2022-10-01T13:15:31.873Z,99765.25
2022-10-01T13:18:10.442Z,99779.50
2022-10-01T13:21:08.329Z,99781.03
2022-10-01T13:24:13.696Z,99791.47
2022-10-01T13:26:46.431Z,99790.44
2022-10-01T13:29:30.272Z,99794.50
2022-10-01T13:31:59.550Z,99804.72
2022-10-01T13:34:40.394Z,99804.63
2022-10-01T13:37:30.327Z,99815.22
2022-10-01T13:39:58.404Z,99796.38
2022-10-01T13:42:38.546Z,99806.41
2022-10-01T13:45:07.452Z,99810.69
2022-10-01T13:47:41.133Z,99823.38
2022-10-01T13:50:21.006Z,99819.66
2022-10-01T13:52:47.646Z,99846.59
2022-10-01T13:55:29.574Z,99849.00
2022-10-01T13:58:26.923Z,99881.00
2022-10-01T14:00:56.233Z,99877.69
2022-10-01T14:03:44.357Z,99888.31
2022-10-01T14:06:21.615Z,99899.66
2022-10-01T14:08:54.289Z,99894.47
2022-10-01T14:11:46.191Z,99924.41
2022-10-01T14:14:40.229Z,99915.78
2022-10-01T14:17:09.870Z,99920.16
2022-10-01T14:19:37.049Z,99904.63
2022-10-01T14:22:12.782Z,99908.91
2022-10-01T14:24:50.542Z,99909.88
2022-10-01T14:27:43.517Z,99907.63
2022-10-01T14:30:17.514Z,99895.53
2022-10-01T14:33:12.161Z,99899.47
2022-10-01T14:35:47.728Z,99908.31
2022-10-01T14:38:19.418Z,99894.94
2022-10-01T14:40:48.083Z,99907.16
2022-10-01T14:43:23.405Z,99916.75
2022-10-01T14:46:02.148Z,99910.06
2022-10-01T14:48:31.406Z,99895.22
2022-10-01T14:51:04.169Z,99907.94
2022-10-01T14:53:34.997Z,99916.94
2022-10-01T14:56:06.723Z,99914.28
2022-10-01T14:58:41.567Z,99923.72
2022-10-01T15:01:18.244Z,99931.50
2022-10-01T15:03:47.303Z,99927.59
2022-10-01T15:06:17.097Z,99931.38
2022-10-01T15:08:49.034Z,99943.25
2022-10-01T15:11:24.217Z,99946.50
2022-10-01T15:13:54.602Z,99942.88
2022-10-01T15:16:23.974Z,99954.78
2022-10-01T15:18:58.071Z,99956.94
2022-10-01T15:21:33.748Z,99963.78
2022-10-01T15:24:04.174Z,99960.53
2022-10-01T15:26:32.771Z,99961.53
2022-10-01T15:29:04.926Z,99966.75
2022-10-01T15:31:33.073Z,99977.38
2022-10-01T15:34:02.544Z,99973.13
2022-10-01T15:36:29.397Z,99979.41
2022-10-01T15:38:56.802Z,99982.06
2022-10-01T15:41:32.750Z,99984.59
2022-10-01T15:44:03.210Z,99996.22
2022-10-01T15:46:34.091Z,99999.91
2022-10-01T15:49:18.731Z,99990.19
2022-10-01T15:52:19.816Z,100005.81
2022-10-01T15:54:47.392Z,99996.94
2022-10-01T15:57:20.767Z,100004.03
2022-10-01T15:59:50.093Z,100011.78
2022-10-01T16:02:22.691Z,100017.03
2022-10-01T16:04:52.764Z,100018.84
2022-10-01T16:07:28.721Z,100030.22
2022-10-01T16:10:12.278Z,100024.22
2022-10-01T16:12:38.982Z,100040.69
2022-10-01T16:15:22.926Z,100043.22
2022-10-01T16:17:55.925Z,100057.13
2022-10-01T16:20:46.606Z,100057.13
2022-10-01T16:23:41.926Z,100056.28
2022-10-01T16:26:27.130Z,100067.63
2022-10-01T16:28:59.583Z,100062.41
2022-10-01T16:31:26.341Z,100069.44
2022-10-01T16:33:53.129Z,100066.22
2022-10-01T16:36:21.688Z,100076.94
2022-10-01T16:38:48.260Z,100075.22
2022-10-01T16:41:22.169Z,100091.09
2022-10-01T16:43:51.741Z,100091.16
2022-10-01T16:46:18.373Z,100108.66
2022-10-01T16:48:48.761Z,100088.75
2022-10-01T16:51:15.379Z,100096.72
2022-10-01T16:53:42.965Z,100123.75
2022-10-01T16:56:10.796Z,100127.44
2022-10-01T16:58:41.689Z,100131.03
2022-10-01T17:01:10.171Z,100140.78
2022-10-01T17:03:36.935Z,100143.28
2022-10-01T17:06:03.805Z,100159.84
2022-10-01T17:08:30.377Z,100162.66
2022-10-01T17:11:00.196Z,100165.16
2022-10-01T17:13:28.593Z,100160.78
2022-10-01T17:15:55.335Z,100166.09
2022-10-01T17:18:22.088Z,100171.38
2022-10-01T17:20:48.786Z,100185.22
2022-10-01T17:23:19.061Z,100189.50
2022-10-01T17:25:46.668Z,100184.44
2022-10-01T17:28:16.773Z,100193.97
2022-10-01T17:30:46.442Z,100188.72
2022-10-01T17:33:13.764Z,100203.50
2022-10-01T17:35:43.144Z,100203.63
2022-10-01T17:38:11.060Z,100201.88
2022-10-01T17:40:41.792Z,100207.97
2022-10-01T17:43:12.586Z,100217.50
2022-10-01T17:45:39.209Z,100218.47
2022-10-01T17:48:05.977Z,100223.75
2022-10-01T17:50:32.965Z,100229.88
2022-10-01T17:53:00.732Z,100232.47
2022-10-01T17:55:27.912Z,100235.09
2022-10-01T17:57:54.566Z,100250.78
2022-10-01T18:00:21.263Z,100256.00
2022-10-01T18:02:47.970Z,100246.41
2022-10-01T18:05:15.098Z,100253.38
2022-10-01T18:07:42.584Z,100256.88
2022-10-01T18:10:12.196Z,100272.56
2022-10-01T18:12:39.056Z,100276.97
2022-10-01T18:15:06.136Z,100267.41
2022-10-01T18:17:33.227Z,100264.81
2022-10-01T18:20:00.133Z,100277.00
2022-10-01T18:22:28.181Z,100283.97
2022-10-01T18:24:54.919Z,100271.84
2022-10-01T18:27:21.558Z,100292.78
2022-10-01T18:29:48.164Z,100286.75
2022-10-01T18:32:20.556Z,100295.47
2022-10-01T18:34:59.131Z,100305.00
2022-10-01T18:37:40.178Z,100301.50
2022-10-01T18:40:16.313Z,100312.06
2022-10-01T18:43:03.132Z,100322.50
2022-10-01T18:45:53.294Z,100332.06
2022-10-01T18:48:57.865Z,100332.03
2022-10-01T18:51:57.636Z,100338.13
2022-10-01T18:54:31.898Z,100349.44
2022-10-01T18:57:06.081Z,100358.16
2022-10-01T18:59:47.722Z,100359.91
2022-10-01T19:02:31.951Z,100349.47
2022-10-01T19:05:34.041Z,100365.16
2022-10-01T19:08:23.632Z,100364.25
2022-10-01T19:11:17.077Z,100374.72
2022-10-01T19:13:56.718Z,100386.94
2022-10-01T19:16:29.494Z,100385.19
2022-10-01T19:19:12.166Z,100385.19
2022-10-01T19:21:45.654Z,100383.44
2022-10-01T19:24:23.233Z,100393.88
2022-10-01T19:26:52.853Z,100396.50
2022-10-01T19:29:22.279Z,100409.56
2022-10-01T19:31:56.244Z,100408.72
2022-10-01T19:34:38.083Z,100405.19
2022-10-01T19:37:28.032Z,100414.81
2022-10-01T19:40:00.849Z,100420.91
2022-10-01T19:42:33.211Z,100426.09
2022-10-01T19:45:16.363Z,100430.47
2022-10-01T19:47:54.183Z,100435.69
2022-10-01T19:50:28.969Z,100435.69
2022-10-01T19:52:58.184Z,100431.34
2022-10-01T19:55:32.154Z,100442.66
2022-10-01T19:58:02.889Z,100443.53
2022-10-01T20:00:32.305Z,100447.88
2022-10-01T20:03:22.892Z,100447.84
2022-10-01T20:06:01.789Z,100452.25
2022-10-01T20:08:52.904Z,100454.81
2022-10-01T20:11:39.579Z,100459.16
2022-10-01T20:14:57.350Z,100473.97
2022-10-01T20:17:28.824Z,100469.63
2022-10-01T20:20:13.167Z,100469.63
2022-10-01T20:22:45.496Z,100479.19
2022-10-01T20:25:24.028Z,100493.13
2022-10-01T20:28:01.189Z,100488.75
2022-10-01T20:30:30.503Z,100491.38
2022-10-01T20:33:06.337Z,100494.84
2022-10-01T20:35:37.995Z,100499.19
2022-10-01T20:38:13.285Z,100501.78
2022-10-01T20:40:50.866Z,100506.16
2022-10-01T20:43:28.227Z,100505.28
2022-10-01T20:45:55.915Z,100488.75
2022-10-01T20:48:27.206Z,100504.41
2022-10-01T20:51:00.704Z,100507.03
2022-10-01T20:53:38.617Z,100501.81
2022-10-01T20:56:16.479Z,100515.72
2022-10-01T20:58:50.153Z,100520.94
2022-10-01T21:01:20.710Z,100520.94
2022-10-01T21:03:54.248Z,100517.47
2022-10-01T21:06:35.397Z,100520.94
2022-10-01T21:09:26.087Z,100533.13
2022-10-01T21:12:08.650Z,100547.06
2022-10-01T21:14:45.604Z,100552.31
2022-10-01T21:17:34.281Z,100577.50
2022-10-01T21:20:49.364Z,100583.59
2022-10-01T21:23:34.230Z,100591.41
2022-10-01T21:26:16.161Z,100585.34
2022-10-01T21:28:54.981Z,100576.66
2022-10-01T21:32:09.554Z,100565.34
2022-10-01T21:35:01.107Z,100553.13
2022-10-01T21:37:33.961Z,100571.41
2022-10-01T21:40:04.007Z,100579.22
2022-10-01T21:42:45.029Z,100565.34
2022-10-01T21:45:45.871Z,100564.47
2022-10-01T21:48:39.949Z,100568.78
2022-10-01T21:51:12.550Z,100573.16
2022-10-01T21:53:57.297Z,100570.50
2022-10-01T21:56:54.895Z,100574.88
2022-10-01T21:59:47.503Z,100570.50
2022-10-01T22:02:33.644Z,100575.75
2022-10-01T22:05:22.773Z,100573.03
2022-10-01T22:08:02.216Z,100586.97
2022-10-01T22:10:36.491Z,100578.22
2022-10-01T22:13:11.286Z,100583.41
2022-10-01T22:15:43.841Z,100589.53
2022-10-01T22:18:49.065Z,100566.00
2022-10-01T22:21:41.253Z,100591.22
2022-10-01T22:24:12.322Z,100587.75
2022-10-01T22:27:13.609Z,100590.34
2022-10-01T22:29:48.762Z,100588.59
2022-10-01T22:32:19.388Z,100592.91
2022-10-01T22:34:54.998Z,100593.81
2022-10-01T22:37:37.543Z,100599.00
2022-10-01T22:40:26.266Z,100604.13
2022-10-01T22:43:03.640Z,100601.59
2022-10-01T22:45:47.499Z,100599.81
2022-10-01T22:48:37.641Z,100600.59
2022-10-01T22:51:30.423Z,100613.69
2022-10-01T22:54:09.129Z,100611.09
2022-10-01T22:57:03.176Z,100605.88
2022-10-01T22:59:51.006Z,100617.19
2022-10-01T23:02:31.884Z,100613.66
2022-10-01T23:05:32.361Z,100621.50
2022-10-01T23:08:31.959Z,100629.38
2022-10-01T23:11:04.573Z,100627.56
2022-10-01T23:13:46.401Z,100622.34
2022-10-01T23:16:17.360Z,100625.72
2022-10-01T23:18:52.464Z,100630.16
2022-10-01T23:21:37.263Z,100632.72
2022-10-01T23:24:19.135Z,100628.41
2022-10-01T23:27:07.065Z,100621.47
2022-10-01T23:30:04.590Z,100633.63
2022-10-01T23:32:31.054Z,100634.41
2022-10-01T23:35:00.697Z,100632.75
2022-10-01T23:37:27.200Z,100640.56
2022-10-01T23:40:09.408Z,100631.84
2022-10-01T23:42:35.955Z,100639.69
2022-10-01T23:45:15.227Z,100636.22
2022-10-01T23:48:13.771Z,100641.44
2022-10-01T23:50:49.243Z,100630.84
2022-10-01T23:53:23.903Z,100644.78
2022-10-01T23:56:23.473Z,100652.66
2022-10-01T23:59:00.902Z,100653.53
